createdAt,value
2018-06-09T00:00:27.730Z,6.05
2018-06-09T00:02:56.203Z,6.17
2018-06-09T00:05:24.744Z,6.67
2018-06-09T00:07:53.610Z,7.20
2018-06-09T00:10:21.917Z,6.55
2018-06-09T00:12:50.534Z,6.80
2018-06-09T00:15:19.784Z,6.95
2018-06-09T00:17:48.395Z,6.40
2018-06-09T00:20:18.898Z,6.42
2018-06-09T00:22:47.392Z,6.22
2018-06-09T00:25:15.782Z,6.75
2018-06-09T00:27:44.288Z,6.62
2018-06-09T00:30:12.767Z,6.40
2018-06-09T00:32:41.132Z,7.03
2018-06-09T00:35:10.913Z,7.60
2018-06-09T00:37:39.435Z,7.12
2018-06-09T00:40:08.053Z,7.00
2018-06-09T00:42:36.504Z,7.78
2018-06-09T00:45:04.888Z,7.40
2018-06-09T00:47:33.280Z,7.50
2018-06-09T00:50:01.624Z,7.87
2018-06-09T00:52:29.993Z,7.90
2018-06-09T00:54:59.331Z,7.85
2018-06-09T00:57:32.806Z,8.48
2018-06-09T01:00:01.557Z,8.15
2018-06-09T01:02:30.497Z,7.92
2018-06-09T01:04:59.048Z,8.60
2018-06-09T01:07:36.916Z,8.30
2018-06-09T01:10:05.911Z,8.08
2018-06-09T01:12:34.288Z,9.18
2018-06-09T01:15:02.607Z,8.08
2018-06-09T01:17:44.758Z,8.20
2018-06-09T01:20:13.577Z,8.50
2018-06-09T01:22:41.863Z,8.00
2018-06-09T01:25:10.286Z,8.18
2018-06-09T01:27:38.714Z,8.13
2018-06-09T01:30:07.383Z,8.30
2018-06-09T01:32:35.907Z,8.13
2018-06-09T01:35:04.399Z,7.95
2018-06-09T01:37:32.896Z,8.15
2018-06-09T01:40:01.348Z,8.13
2018-06-09T01:42:30.516Z,8.53
2018-06-09T01:44:59.038Z,7.72
2018-06-09T01:53:26.267Z,7.90
2018-06-09T01:55:55.150Z,8.25
2018-06-09T01:58:28.658Z,7.87
2018-06-09T02:00:56.991Z,7.78
2018-06-09T02:03:25.321Z,8.00
2018-06-09T02:05:54.237Z,7.75
2018-06-09T02:08:22.946Z,7.92
2018-06-09T02:10:51.286Z,8.13
2018-06-09T02:13:19.655Z,7.70
2018-06-09T02:15:47.962Z,8.03
2018-06-09T02:18:16.851Z,8.38
2018-06-09T02:20:45.194Z,8.60
2018-06-09T02:23:13.603Z,8.13
2018-06-09T02:25:42.016Z,7.83
2018-06-09T02:28:10.347Z,8.35
2018-06-09T02:30:38.715Z,8.08
2018-06-09T02:33:07.169Z,7.90
2018-06-09T02:35:36.009Z,7.58
2018-06-09T02:38:04.580Z,7.47
2018-06-09T02:40:33.085Z,7.30
2018-06-09T02:43:01.758Z,7.20
2018-06-09T02:45:30.045Z,7.00
2018-06-09T02:48:03.584Z,7.42
2018-06-09T02:50:31.926Z,7.12
2018-06-09T02:53:00.632Z,7.40
2018-06-09T02:55:28.995Z,8.55
2018-06-09T02:57:57.503Z,8.30
2018-06-09T03:00:25.883Z,8.60
2018-06-09T03:02:54.297Z,8.20
2018-06-09T03:05:22.695Z,8.00
2018-06-09T03:10:44.537Z,8.03
2018-06-09T03:13:12.991Z,7.75
2018-06-09T03:15:42.301Z,8.15
2018-06-09T03:18:10.887Z,7.90
2018-06-09T03:20:39.284Z,8.17
2018-06-09T03:23:08.716Z,8.70
2018-06-09T03:25:37.160Z,8.77
2018-06-09T03:28:05.579Z,8.50
2018-06-09T03:30:33.961Z,8.90
2018-06-09T03:33:02.430Z,8.43
2018-06-09T03:35:31.226Z,8.40
2018-06-09T03:38:04.768Z,8.80
2018-06-09T03:40:33.152Z,8.33
2018-06-09T03:43:01.546Z,8.98
2018-06-09T03:45:29.933Z,8.48
2018-06-09T03:47:58.711Z,8.75
2018-06-09T03:50:27.103Z,8.45
2018-06-09T03:52:55.522Z,9.28
2018-06-09T03:55:23.873Z,8.28
2018-06-09T03:57:52.269Z,8.98
2018-06-09T04:00:20.657Z,8.93
2018-06-09T04:02:49.348Z,8.95
2018-06-09T04:05:17.697Z,12.05
2018-06-09T04:07:46.325Z,9.70
2018-06-09T04:10:14.646Z,8.93
2018-06-09T04:12:42.981Z,8.83
2018-06-09T04:15:11.529Z,8.93
2018-06-09T04:17:39.940Z,9.10
2018-06-09T04:20:08.265Z,9.30
2018-06-09T04:22:37.395Z,8.93
2018-06-09T04:25:05.734Z,8.93
2018-06-09T04:27:34.416Z,9.23
2018-06-09T04:30:03.636Z,9.30
2018-06-09T04:32:32.080Z,9.58
2018-06-09T04:35:00.436Z,9.40
2018-06-09T04:37:28.858Z,9.20
2018-06-09T04:39:57.237Z,9.33
2018-06-09T04:42:25.681Z,9.63
2018-06-09T04:44:54.724Z,9.03
2018-06-09T04:47:23.738Z,9.28
2018-06-09T04:49:52.538Z,9.60
2018-06-09T04:52:21.042Z,9.05
2018-06-09T04:54:49.668Z,9.55
2018-06-09T04:57:18.260Z,9.90
2018-06-09T04:59:46.890Z,9.73
2018-06-09T05:02:15.476Z,9.80
2018-06-09T05:04:44.041Z,10.65
2018-06-09T05:07:12.471Z,10.50
2018-06-09T05:09:41.079Z,11.40
2018-06-09T05:12:09.446Z,10.72
2018-06-09T05:14:37.828Z,10.93
2018-06-09T05:17:06.754Z,11.12
2018-06-09T05:19:35.162Z,12.00
2018-06-09T05:22:03.721Z,12.20
2018-06-09T05:24:32.080Z,12.40
2018-06-09T05:27:00.826Z,12.23
2018-06-09T05:29:29.216Z,11.80
2018-06-09T05:31:57.654Z,12.23
2018-06-09T05:34:25.988Z,11.22
2018-06-09T05:36:54.481Z,10.45
2018-06-09T05:39:23.027Z,11.07
2018-06-09T05:41:51.432Z,10.40
2018-06-09T05:44:19.886Z,11.57
2018-06-09T05:46:48.294Z,11.45
2018-06-09T05:49:17.712Z,11.03
2018-06-09T05:51:46.150Z,11.55
2018-06-09T05:54:14.706Z,11.85
2018-06-09T05:56:43.042Z,12.10
2018-06-09T05:59:12.422Z,11.63
2018-06-09T06:01:41.042Z,10.53
2018-06-09T06:04:10.633Z,10.93
2018-06-09T06:06:40.035Z,11.40
2018-06-09T06:09:08.880Z,11.07
2018-06-09T06:11:37.332Z,11.78
2018-06-09T06:14:05.806Z,11.93
2018-06-09T06:16:34.148Z,10.45
2018-06-09T06:19:02.578Z,11.43
2018-06-09T06:21:31.262Z,10.28
2018-06-09T06:24:00.656Z,10.47
2018-06-09T06:26:28.991Z,10.80
2018-06-09T06:28:57.838Z,10.73
2018-06-09T06:31:26.190Z,10.75
2018-06-09T06:33:54.576Z,11.00
2018-06-09T06:36:22.992Z,11.10
2018-06-09T06:38:51.382Z,10.45
2018-06-09T06:41:19.810Z,11.40
2018-06-09T06:43:48.286Z,11.05
2018-06-09T06:46:16.670Z,11.18
2018-06-09T06:48:45.090Z,11.00
2018-06-09T06:51:13.620Z,10.68
2018-06-09T06:53:42.034Z,10.70
2018-06-09T06:56:10.466Z,10.40
2018-06-09T06:58:43.915Z,11.27
2018-06-09T07:01:12.538Z,10.40
2018-06-09T07:03:41.026Z,10.05
2018-06-09T07:06:09.611Z,9.95
2018-06-09T07:08:38.019Z,10.15
2018-06-09T07:11:06.375Z,10.03
2018-06-09T07:13:35.537Z,10.15
2018-06-09T07:16:04.072Z,10.75
2018-06-09T07:18:32.442Z,10.03
2018-06-09T07:21:00.860Z,10.20
2018-06-09T07:23:29.214Z,9.83
2018-06-09T07:25:57.930Z,10.30
2018-06-09T07:28:31.398Z,11.43
2018-06-09T07:30:59.858Z,10.30
2018-06-09T07:33:28.220Z,10.82
2018-06-09T07:35:56.654Z,10.10
2018-06-09T07:38:25.066Z,10.90
2018-06-09T07:40:53.758Z,10.15
2018-06-09T07:43:22.193Z,10.60
2018-06-09T07:45:50.634Z,10.58
2018-06-09T07:48:19.968Z,10.20
2018-06-09T07:50:48.362Z,9.20
2018-06-09T07:53:16.748Z,9.65
2018-06-09T07:55:45.186Z,9.40
2018-06-09T07:58:18.691Z,9.45
2018-06-09T08:00:47.138Z,9.68
2018-06-09T08:03:15.584Z,9.13
2018-06-09T08:05:43.949Z,9.15
2018-06-09T08:08:12.586Z,9.65
2018-06-09T08:10:41.348Z,9.65
2018-06-09T08:13:09.850Z,9.73
2018-06-09T08:15:38.400Z,9.80
2018-06-09T08:18:07.030Z,9.70
2018-06-09T08:20:35.350Z,9.60
2018-06-09T08:23:04.092Z,9.60
2018-06-09T08:25:32.566Z,9.90
2018-06-09T08:28:14.612Z,10.00
2018-06-09T08:30:42.942Z,9.53
2018-06-09T08:33:11.613Z,9.60
2018-06-09T08:35:40.180Z,9.50
2018-06-09T08:41:01.550Z,9.70
2018-06-09T08:43:32.173Z,8.15
2018-06-09T08:46:01.674Z,8.10
2018-06-09T08:54:15.628Z,9.33
2018-06-09T08:56:44.454Z,8.98
2018-06-09T08:59:12.926Z,9.20
2018-06-09T09:01:41.770Z,9.30
2018-06-09T09:04:10.430Z,8.90
2018-06-09T09:06:38.802Z,8.68
2018-06-09T09:09:08.799Z,8.88
2018-06-09T09:11:37.383Z,9.35
2018-06-09T09:14:06.176Z,8.80
2018-06-09T09:16:34.769Z,9.28
2018-06-09T09:19:03.738Z,8.90
2018-06-09T09:21:32.230Z,9.28
2018-06-09T09:24:00.629Z,8.58
2018-06-09T09:26:29.026Z,9.83
2018-06-09T09:28:57.326Z,9.25
2018-06-09T09:31:25.680Z,7.67
2018-06-09T09:33:54.040Z,8.25
2018-06-09T09:36:22.434Z,8.75
2018-06-09T09:38:50.764Z,8.00
2018-06-09T09:41:19.484Z,7.90
2018-06-09T09:43:48.054Z,7.17
2018-06-09T09:46:16.741Z,7.33
2018-06-09T09:48:45.188Z,7.40
2018-06-09T09:51:13.735Z,8.30
2018-06-09T09:53:42.090Z,7.70
2018-06-09T09:56:11.064Z,6.70
2018-06-09T09:58:39.601Z,6.67
2018-06-09T10:01:08.188Z,6.75
2018-06-09T10:03:36.504Z,6.40
2018-06-09T10:06:05.058Z,6.00
2018-06-09T10:08:33.592Z,6.00
2018-06-09T10:11:01.988Z,6.60
2018-06-09T10:13:30.510Z,6.67
2018-06-09T10:15:59.596Z,5.93
2018-06-09T10:18:28.015Z,6.00
2018-06-09T10:20:56.444Z,7.00
2018-06-09T10:23:24.831Z,7.50
2018-06-09T10:25:54.473Z,7.25
2018-06-09T10:28:22.846Z,7.30
2018-06-09T10:30:51.354Z,7.30
2018-06-09T10:33:19.756Z,6.97
2018-06-09T10:35:48.544Z,7.03
2018-06-09T12:56:16.890Z,4.47
2018-06-09T12:58:45.356Z,4.30
2018-06-09T13:01:13.823Z,4.37
2018-06-09T13:03:42.487Z,4.65
2018-06-09T13:06:10.889Z,4.90
2018-06-09T13:08:39.544Z,5.03
2018-06-09T13:11:08.026Z,4.60
2018-06-09T13:13:36.493Z,4.50
2018-06-09T13:16:04.857Z,4.28
2018-06-09T13:18:33.165Z,4.45
2018-06-09T13:21:01.620Z,4.65
2018-06-09T13:23:30.229Z,4.47
2018-06-09T13:25:58.622Z,4.40
2018-06-09T13:28:26.987Z,4.45
2018-06-09T13:30:55.695Z,4.37
2018-06-09T13:33:24.084Z,4.50
2018-06-09T13:35:52.751Z,4.28
2018-06-09T13:38:26.098Z,4.40
2018-06-09T13:40:54.774Z,4.50
2018-06-09T13:43:23.061Z,4.40
2018-06-09T13:45:51.379Z,4.62
2018-06-09T13:48:19.737Z,4.47
2018-06-09T13:50:48.121Z,4.65
2018-06-09T13:53:16.511Z,4.53
2018-06-09T13:55:45.713Z,5.15
2018-06-09T13:58:14.173Z,4.50
2018-06-09T14:00:42.540Z,4.33
2018-06-09T14:03:11.047Z,4.58
2018-06-09T14:05:39.939Z,4.83
2018-06-09T14:08:08.923Z,4.50
2018-06-09T14:10:37.233Z,5.92
2018-06-09T14:13:05.561Z,4.30
2018-06-09T14:15:34.036Z,4.28
2018-06-09T14:18:02.629Z,4.40
2018-06-09T14:20:31.451Z,4.30
2018-06-09T16:46:11.542Z,7.78
2018-06-09T16:49:02.625Z,7.65
2018-06-09T16:51:31.245Z,7.65
2018-06-09T16:53:59.649Z,7.55
2018-06-09T16:56:28.109Z,7.33
2018-06-09T17:02:11.979Z,8.03
2018-06-09T17:04:40.461Z,8.38
2018-06-09T17:07:08.828Z,8.85
2018-06-09T17:09:38.691Z,7.60
2018-06-09T17:12:07.513Z,8.03
2018-06-09T17:14:35.908Z,8.05
2018-06-09T17:17:04.561Z,8.15
2018-06-09T17:19:32.911Z,8.05
2018-06-09T17:22:01.392Z,7.60
2018-06-09T17:24:29.951Z,9.70
2018-06-09T17:26:58.339Z,7.53
2018-06-09T17:29:26.906Z,7.65
2018-06-09T17:31:55.260Z,7.10
2018-06-09T17:34:23.624Z,7.50
2018-06-09T17:36:52.062Z,6.75
2018-06-09T17:39:43.279Z,7.00
2018-06-09T17:42:11.998Z,6.95
2018-06-09T17:44:40.528Z,7.10
2018-06-09T17:47:09.444Z,7.65
2018-06-09T17:49:37.818Z,7.33
2018-06-09T17:52:06.638Z,6.97
2018-06-09T17:54:35.177Z,7.10
2018-06-09T17:57:03.694Z,6.78
2018-06-09T17:59:32.205Z,7.87
2018-06-09T18:02:00.722Z,8.05
2018-06-09T18:04:29.263Z,7.97
2018-06-09T18:06:57.925Z,7.65
2018-06-09T18:09:31.978Z,7.60
2018-06-09T18:12:00.649Z,7.67
2018-06-09T18:14:29.247Z,6.03
2018-06-09T18:16:58.352Z,5.35
2018-06-09T18:19:49.444Z,5.20
2018-06-09T18:22:18.014Z,5.80
2018-06-09T18:24:47.006Z,4.70
2018-06-09T18:27:15.467Z,4.40
2018-06-09T18:29:44.086Z,4.20
2018-06-09T18:32:12.705Z,5.05
2018-06-09T18:34:42.042Z,5.45
2018-06-09T18:37:11.202Z,5.35
2018-06-09T18:39:39.865Z,4.97
2018-06-09T18:42:08.585Z,5.00
2018-06-09T18:44:37.135Z,5.35
2018-06-09T18:47:05.742Z,5.05
2018-06-09T18:49:34.802Z,5.35
2018-06-09T18:52:03.207Z,5.67
2018-06-09T18:54:32.020Z,5.60
2018-06-09T18:57:01.728Z,5.33
2018-06-09T19:02:36.662Z,5.22
2018-06-09T19:05:07.823Z,4.83
2018-06-09T19:07:36.302Z,4.60
2018-06-09T19:10:04.724Z,4.20
2018-06-09T19:12:33.214Z,5.20
2018-06-09T19:15:02.040Z,4.70
2018-06-09T19:17:30.846Z,4.97
2018-06-09T19:20:05.003Z,4.97
2018-06-09T19:22:33.714Z,6.30
2018-06-09T19:25:02.649Z,5.67
2018-06-09T19:27:31.133Z,5.83
2018-06-09T19:29:59.750Z,5.72
2018-06-09T19:32:29.304Z,5.70
2018-06-09T19:34:59.168Z,5.17
2018-06-09T19:37:28.598Z,5.17
2018-06-09T19:40:06.480Z,5.47
2018-06-09T19:42:35.567Z,4.90
2018-06-09T19:45:04.228Z,4.53
2018-06-09T19:47:32.604Z,4.70
2018-06-09T19:50:19.809Z,5.03
2018-06-09T19:52:48.330Z,5.28
2018-06-09T19:55:16.847Z,5.10
2018-06-09T19:57:59.128Z,5.42
2018-06-09T20:00:28.121Z,5.58
2018-06-09T20:02:57.488Z,5.60
2018-06-09T20:05:26.254Z,6.10
2018-06-09T20:07:55.593Z,5.00
2018-06-09T20:10:24.132Z,5.75
2018-06-09T20:12:52.851Z,5.95
2018-06-09T20:15:21.182Z,4.67
2018-06-09T20:17:54.811Z,5.92
2018-06-09T20:20:23.474Z,5.60
2018-06-09T20:22:52.131Z,5.80
2018-06-09T20:25:20.438Z,5.55
2018-06-09T20:27:49.113Z,5.35
2018-06-09T20:30:17.774Z,5.70
2018-06-09T20:32:46.573Z,5.60
2018-06-09T20:35:15.036Z,5.97
2018-06-09T20:37:43.487Z,5.78
2018-06-09T20:40:12.567Z,5.83
2018-06-09T20:42:40.987Z,6.35
2018-06-09T20:45:09.317Z,6.03
2018-06-09T20:47:37.805Z,6.58
2018-06-09T20:50:06.209Z,6.12
2018-06-09T20:52:34.643Z,6.17
2018-06-09T20:55:03.101Z,6.30
2018-06-09T20:57:31.777Z,5.65
2018-06-09T21:02:57.815Z,5.50
2018-06-09T21:05:26.705Z,5.87
2018-06-09T21:08:13.839Z,6.28
2018-06-09T21:10:42.240Z,6.30
2018-06-09T21:13:10.851Z,6.58
2018-06-09T21:15:39.129Z,6.35
2018-06-09T21:18:07.579Z,7.17
2018-06-09T21:20:35.981Z,6.47
2018-06-09T21:23:04.664Z,5.83
2018-06-09T21:25:33.028Z,6.60
2018-06-09T21:28:20.401Z,6.15
2018-06-09T21:30:54.162Z,5.78
2018-06-09T21:33:33.662Z,5.42
2018-06-09T21:36:07.294Z,6.33
2018-06-09T21:39:11.226Z,6.08
2018-06-09T21:41:43.657Z,6.08
2018-06-09T21:45:17.785Z,6.05
2018-06-09T21:47:46.199Z,6.80
2018-06-09T21:50:14.643Z,7.08
2018-06-09T21:52:43.028Z,6.20
2018-06-09T21:55:11.393Z,6.78
2018-06-09T21:57:39.689Z,6.80
2018-06-09T22:00:08.484Z,5.85
2018-06-09T22:02:36.854Z,6.67
2018-06-09T22:05:05.356Z,6.12
2018-06-09T22:07:33.695Z,6.60
2018-06-09T22:10:15.876Z,5.90
2018-06-09T22:12:44.211Z,6.50
2018-06-09T22:15:12.580Z,6.55
2018-06-09T22:17:40.959Z,6.62
2018-06-09T22:20:09.451Z,6.67
2018-06-09T22:22:37.755Z,6.45
2018-06-09T22:25:06.723Z,6.83
2018-06-09T22:27:35.057Z,6.97
2018-06-09T22:30:12.816Z,6.90
2018-06-09T22:32:41.283Z,6.80
2018-06-09T22:35:09.657Z,6.33
2018-06-09T22:37:38.217Z,7.10
2018-06-09T22:40:06.597Z,6.50
2018-06-09T22:42:35.001Z,6.50
2018-06-09T22:45:03.378Z,6.58
2018-06-09T22:47:31.711Z,7.20
2018-06-09T22:50:09.567Z,7.20
2018-06-09T22:52:37.885Z,7.65
2018-06-09T22:55:06.271Z,7.15
2018-06-09T22:57:34.585Z,7.17
2018-06-09T23:00:16.745Z,7.35
2018-06-09T23:02:45.068Z,6.70
2018-06-09T23:05:13.364Z,6.75
2018-06-09T23:07:41.682Z,6.47
2018-06-09T23:10:10.026Z,6.50
2018-06-09T23:12:38.371Z,6.92
2018-06-09T23:15:06.755Z,6.42
2018-06-09T23:17:35.162Z,5.87
2018-06-09T23:20:12.993Z,5.70
2018-06-09T23:22:41.310Z,5.47
2018-06-09T23:25:09.724Z,6.03
2018-06-09T23:27:38.049Z,6.12
2018-06-09T23:30:07.040Z,6.30
2018-06-09T23:32:35.395Z,6.12
2018-06-09T23:35:04.011Z,6.47
2018-06-09T23:37:32.459Z,6.65
2018-06-09T23:40:00.903Z,7.15
2018-06-09T23:42:29.259Z,6.92
2018-06-09T23:44:57.561Z,7.12
2018-06-09T23:47:25.919Z,7.08
2018-06-09T23:49:54.265Z,6.87
2018-06-09T23:52:23.577Z,5.92
2018-06-09T23:54:52.637Z,6.35
2018-06-09T23:57:20.952Z,6.58
2018-06-09T23:59:49.841Z,6.22
